Latest Weather Observations for Christmas Island

IDW60801

Issued at 8:03 am WST Thursday 30 July 2015 (issued every 30 minutes, with the page automatically refreshed every 10 minutes)

About weather observations | Map of weather stations | Latest weather observations for WA | Other Formats
Station Details ID: 200790 Name: CHRISTMAS ISLAND AERO Lat: -10.45 Lon: 105.69 Height: 261.0 m
Data from the previous 72 hours. | See also: Recent months at Christmas Island
Date/Time
WST
Temp
°C
App
Temp
°C
Dew
Point
Rel
Hum
%
Delta-T
°C
Wind Press
QNH
hPa
Press
MSL
hPa
Rain
since 9 am
mm
Dir
 
Spd
km/h
Gust
km/h
Spd
kts
Gust
kts
30/08:00am 23.9 25.0 21.2 85 1.8 ESE 17 24 9 13 1016.7 - 0.0
30/07:32am 24.1 24.7 21.4 85 1.8 ESE 20 32 11 17 1016.2 - 0.0
30/07:00am 24.2 24.6 20.9 82 2.2 ESE 20 28 11 15 1015.8 1014.4 0.0
30/06:52am 24.1 24.3 20.6 81 2.3 ESE 20 28 11 15 1015.7 - 0.0
30/06:00am 24.1 24.2 21.1 83 2.0 ESE 22 33 12 18 1015.1 - 0.0
30/05:59am 24.1 23.7 20.9 82 2.1 ESE 24 33 13 18 1015.1 - 0.0
30/05:54am 24.1 23.7 20.9 82 2.1 ESE 24 37 13 20 1015.1 - 0.0
30/05:44am 24.0 24.5 21.1 84 1.9 ESE 20 30 11 16 1015.0 - 0.0
30/05:08am 24.1 24.2 20.3 79 2.5 ESE 20 32 11 17 1014.8 - 0.0
30/05:00am 24.1 24.2 20.3 79 2.5 ESE 20 30 11 16 1014.8 - 0.0
30/04:32am 24.1 24.2 21.1 83 2.0 ESE 22 32 12 17 1014.7 - 0.0
30/04:18am 24.1 24.2 21.1 83 2.0 ESE 22 35 12 19 1014.7 - 0.0
30/04:00am 24.0 24.0 21.0 83 2.0 ESE 22 33 12 18 1014.8 1013.4 0.0
30/03:49am 24.0 24.2 21.3 85 1.8 ESE 22 30 12 16 1014.8 - 0.0
30/03:11am 24.1 24.1 20.9 82 2.1 ESE 22 32 12 17 1015.1 - 0.0
30/03:00am 24.1 23.6 20.8 82 2.2 ESE 24 35 13 19 1015.1 - 0.0
30/02:57am 24.1 23.8 21.1 83 2.0 ESE 24 35 13 19 1015.1 - 0.0
30/02:51am 24.2 23.8 21.0 82 2.1 ESE 24 35 13 19 1015.1 - 0.0
30/02:34am 24.1 24.2 21.1 83 2.0 ESE 22 32 12 17 1015.2 - 0.0
30/02:28am 24.1 23.6 20.8 82 2.2 ESE 24 35 13 19 1015.2 - 0.0
30/02:00am 24.0 23.6 21.0 83 2.0 ESE 24 35 13 19 1015.5 - 0.0
30/01:00am 24.2 24.0 21.2 83 2.0 ESE 24 35 13 19 1015.8 1014.4 0.0
30/12:56am 24.1 23.5 21.2 84 1.9 ESE 26 37 14 20 1015.8 - 0.0
30/12:30am 24.3 23.5 20.8 81 2.3 ESE 26 39 14 21 1016.1 - 0.0
30/12:00am 24.2 24.4 21.3 84 1.9 ESE 22 35 12 19 1016.1 - 0.0
 
Date/Time
WST
Temp
°C
App
Temp
°C
Dew
Point
Rel
Hum
%
Delta-T
°C
Wind Press
QNH
hPa
Press
MSL
hPa
Rain
since 9 am
mm
Dir
 
Spd
km/h
Gust
km/h
Spd
kts
Gust
kts
29/11:00pm 24.3 24.6 21.6 85 1.8 ESE 22 35 12 19 1016.2 - 0.0
29/10:00pm 24.2 24.7 22.0 87 1.5 ESE 22 35 12 19 1015.8 1014.4 0.0
29/09:19pm 24.2 25.1 22.0 87 1.5 ESE 20 33 11 18 1015.4 - 0.0
29/09:14pm 24.1 24.2 21.9 87 1.5 E 24 41 13 22 1015.3 - 0.0
29/09:00pm 24.1 24.1 21.7 86 1.6 ESE 24 39 13 21 1015.2 - 0.0
29/08:00pm 24.3 25.0 22.2 88 1.4 ESE 22 39 12 21 1014.6 - 0.0
29/07:25pm 24.2 24.1 21.5 85 1.8 ESE 24 39 13 21 1014.2 - 0.0
29/07:24pm 24.2 24.1 21.5 85 1.8 ESE 24 39 13 21 1014.2 - 0.0
29/07:00pm 24.3 24.6 21.5 84 1.9 ESE 22 33 12 18 1014.2 1012.8 0.0
29/06:47pm 24.4 25.2 21.7 85 1.8 ESE 20 33 11 18 1014.3 - 0.0
29/06:29pm 24.5 25.3 21.7 84 1.9 ESE 20 35 11 19 1014.2 - 0.0
29/06:00pm 24.6 25.3 21.6 83 2.0 ESE 20 30 11 16 1014.1 - 0.0
29/05:24pm 24.8 25.2 21.7 83 2.1 ESE 22 33 12 18 1014.2 - 0.0
29/05:15pm 25.2 25.5 21.5 80 2.5 ESE 22 32 12 17 1014.2 - 0.0
29/05:00pm 25.0 25.1 21.9 83 2.1 ESE 24 35 13 19 1014.2 - 0.0
29/04:00pm 25.4 25.6 22.0 81 2.3 ESE 24 33 13 18 1014.3 1012.9 0.0
29/03:00pm 26.0 26.7 22.2 79 2.6 ESE 22 28 12 15 1014.7 - 0.0
29/02:00pm 26.2 25.9 21.9 77 2.9 ESE 26 35 14 19 1015.7 - 0.0
29/01:38pm 25.5 25.5 21.6 79 2.6 ESE 24 35 13 19 1015.8 - 0.0
29/01:37pm 25.5 25.4 21.5 78 2.7 ESE 24 35 13 19 1015.8 - 0.0
29/01:25pm 25.8 26.1 21.6 77 2.8 E 22 32 12 17 1016.1 - 0.0
29/01:00pm 25.7 25.3 21.0 75 3.1 E 24 33 13 18 1016.4 1015.0 0.0
29/12:00pm 26.1 26.7 21.3 75 3.2 E 20 28 11 15 1017.0 - 0.0
29/11:55am 26.4 27.0 21.3 73 3.4 E 20 28 11 15 1017.1 - 0.0
29/11:00am 25.2 24.8 21.0 77 2.8 E 24 35 13 19 1017.4 - 0.0
29/10:33am 25.7 26.3 21.4 77 2.9 E 20 37 11 20 1017.5 - 0.0
29/10:32am 25.7 26.3 21.4 77 2.9 E 20 37 11 20 1017.5 - 0.0
29/10:01am 25.2 25.0 21.3 79 2.6 E 24 37 13 20 1017.5 - 0.0
29/10:00am 25.1 25.0 21.4 80 2.5 E 24 37 13 20 1017.6 1016.2 0.0
29/09:00am 24.8 25.0 20.5 77 2.8 E 20 32 11 17 1017.5 - 0.0
29/08:48am 24.6 24.9 20.7 79 2.6 E 20 32 11 17 1017.3 - 0.0
29/08:36am 24.3 24.2 20.7 80 2.4 E 22 37 12 20 1017.2 - 0.0
29/08:00am 23.8 24.1 20.4 81 2.2 E 19 32 10 17 1016.9 - 0.0
29/07:00am 23.3 23.6 20.4 84 1.9 E 19 33 10 18 1016.4 1015.0 0.0
29/06:00am 23.4 23.3 20.0 81 2.2 ESE 20 37 11 20 1016.2 - 0.0
29/05:00am 23.3 23.2 19.9 81 2.2 ESE 20 32 11 17 1015.6 - 0.0
29/04:00am 23.2 23.3 20.0 82 2.1 ESE 19 32 10 17 1015.8 1014.4 0.0
29/03:00am 23.3 23.7 19.9 81 2.2 E 17 24 9 13 1016.5 - 0.0
29/02:53am 23.4 24.0 20.2 82 2.1 E 17 28 9 15 1016.6 - 0.0
29/02:27am 23.5 24.2 20.4 83 2.0 E 17 26 9 14 1016.9 - 0.0
29/02:00am 23.6 23.5 19.6 78 2.6 E 19 28 10 15 1017.1 - 0.0
29/01:00am 23.7 24.0 20.3 81 2.2 E 19 30 10 16 1017.5 1016.1 0.0
29/12:15am 23.8 24.3 20.9 84 1.9 E 19 32 10 17 1017.4 - 0.0
29/12:01am 23.8 23.7 20.8 83 2.0 ESE 22 37 12 20 1017.4 - 0.0
29/12:00am 23.8 23.7 20.8 83 2.0 ESE 22 37 12 20 1017.4 - 0.0
 
Date/Time
WST
Temp
°C
App
Temp
°C
Dew
Point
Rel
Hum
%
Delta-T
°C
Wind Press
QNH
hPa
Press
MSL
hPa
Rain
since 9 am
mm
Dir
 
Spd
km/h
Gust
km/h
Spd
kts
Gust
kts
28/11:24pm 23.9 24.5 21.0 84 1.9 ESE 19 30 10 16 1017.4 - 0.0
28/11:10pm 23.9 24.3 20.6 82 2.2 E 19 32 10 17 1017.5 - 0.0
28/11:00pm 23.7 23.9 20.2 81 2.3 E 19 32 10 17 1017.6 - 0.0
28/10:53pm 23.8 24.2 20.6 82 2.1 ESE 19 32 10 17 1017.5 - 0.0
28/10:00pm 23.9 24.4 20.9 83 2.0 E 19 33 10 18 1017.3 1015.9 0.0
28/09:59pm 23.9 24.4 20.9 83 2.0 E 19 33 10 18 1017.2 - 0.0
28/09:48pm 23.9 23.3 20.6 82 2.2 E 24 39 13 21 1017.2 - 0.0
28/09:47pm 23.9 23.3 20.6 82 2.2 E 24 39 13 21 1017.1 - 0.0
28/09:05pm 23.9 23.9 21.0 84 1.9 ESE 22 32 12 17 1016.8 - 0.0
28/09:00pm 24.0 23.5 20.8 82 2.1 ESE 24 33 13 18 1016.7 - 0.0
28/08:00pm 23.9 23.9 20.9 83 2.0 ESE 22 33 12 18 1015.9 - 0.0
28/07:27pm 23.9 23.7 20.6 82 2.2 ESE 22 35 12 19 1015.8 - 0.0
28/07:00pm 23.9 23.4 20.7 82 2.1 ESE 24 32 13 17 1015.6 1014.2 0.0
28/06:00pm 24.5 24.8 20.7 79 2.5 E 20 33 11 18 1015.8 - 0.0
28/05:41pm 24.5 24.6 20.4 78 2.7 ESE 20 33 11 18 1015.8 - 0.0
28/05:34pm 24.7 24.8 20.3 76 2.9 ESE 20 33 11 18 1015.8 - 0.0
28/05:00pm 24.9 25.0 21.1 79 2.5 ESE 22 33 12 18 1015.8 - 0.0
28/04:34pm 25.4 25.0 21.0 76 2.9 ESE 24 32 13 17 1015.9 - 0.0
28/04:11pm 25.3 25.4 21.2 78 2.7 ESE 22 32 12 17 1016.2 - 0.0
28/04:00pm 25.2 25.5 20.8 76 2.9 ESE 20 33 11 18 1016.3 1014.9 0.0
28/03:00pm 25.4 25.3 21.4 78 2.7 ESE 24 35 13 19 1016.3 - 0.0
28/02:00pm 26.0 26.3 21.5 76 3.0 ESE 22 33 12 18 1017.0 - 0.0
28/01:47pm 25.7 25.9 21.4 77 2.9 ESE 22 30 12 16 1017.2 - 0.0
28/01:29pm 26.0 25.5 20.7 72 3.5 ESE 24 37 13 20 1017.5 - 0.0
28/01:00pm 25.4 25.4 20.9 76 3.0 ESE 22 37 12 20 1017.9 1016.5 0.0
28/12:59pm 25.8 25.8 21.0 75 3.2 ESE 22 37 12 20 1017.9 - 0.0
28/12:58pm 25.8 25.8 21.0 75 3.2 ESE 22 33 12 18 1017.9 - 0.0
28/12:00pm 25.9 26.4 21.1 75 3.2 ESE 20 32 11 17 1018.6 - 0.0
28/11:00am 25.4 26.1 21.2 77 2.8 E 19 30 10 16 1018.9 - 0.0
28/10:46am 25.0 25.4 20.9 78 2.7 ESE 20 33 11 18 1019.0 - 0.0
28/10:40am 25.3 25.7 20.9 76 2.9 ESE 20 32 11 17 1019.0 - 0.0
28/10:00am 25.1 24.6 20.7 76 2.9 E 24 35 13 19 1019.0 1017.6 0.0
28/09:00am 24.9 25.5 21.1 79 2.5 E 19 32 10 17 1018.1 - 0.0
28/08:55am 25.0 25.7 21.2 79 2.5 E 19 32 10 17 1018.1 - 0.0
28/08:36am 24.4 24.5 20.4 78 2.6 E 20 35 11 19 1017.9 - 0.0
28/08:00am 24.0 24.4 20.7 82 2.2 E 19 32 10 17 1017.8 - 0.0
28/07:00am 23.5 24.6 21.2 87 1.5 ESE 17 28 9 15 1017.3 1015.9 0.0
28/06:25am 23.5 24.9 21.1 86 1.6 ESE 15 30 8 16 1017.1 - 0.0
28/06:18am 23.5 24.4 20.9 85 1.7 ESE 17 30 9 16 1017.1 - 0.0
28/06:00am 23.5 24.0 20.9 85 1.7 ESE 19 30 10 16 1017.0 - 0.0
28/05:00am 23.4 24.4 21.0 86 1.6 E 17 30 9 16 1016.6 - 0.0
28/04:33am 23.5 24.4 20.8 85 1.8 E 17 28 9 15 1016.7 - 0.0
28/04:00am 23.4 23.7 20.5 84 1.9 ESE 19 32 10 17 1016.5 1015.1 0.0
28/03:38am 23.3 23.7 20.6 85 1.8 E 19 30 10 16 1016.5 - 0.0
28/03:26am 23.4 24.4 21.0 86 1.6 ESE 17 28 9 15 1016.7 - 0.0
28/03:19am 23.4 24.0 21.0 86 1.6 ESE 19 28 10 15 1016.8 - 0.0
28/03:00am 23.5 23.8 20.8 85 1.8 E 20 33 11 18 1017.0 - 0.0
28/02:00am 23.5 24.0 20.8 85 1.8 E 19 24 10 13 1017.4 - 0.0
28/01:59am 23.5 24.0 20.8 85 1.8 E 19 24 10 13 1017.4 - 0.0
28/01:34am 23.5 24.0 20.9 85 1.7 E 19 28 10 15 1017.7 - 0.0
28/01:00am 23.7 24.5 21.3 86 1.6 ESE 19 32 10 17 1017.9 1016.5 0.0
28/12:00am 23.6 24.7 21.2 86 1.6 ESE 17 24 9 13 1017.9 - 0.0
 
Date/Time
WST
Temp
°C
App
Temp
°C
Dew
Point
Rel
Hum
%
Delta-T
°C
Wind Press
QNH
hPa
Press
MSL
hPa
Rain
since 9 am
mm
Dir
 
Spd
km/h
Gust
km/h
Spd
kts
Gust
kts
27/11:00pm 23.6 24.3 21.5 88 1.4 ESE 20 28 11 15 1017.8 - 0.0
27/10:00pm 23.7 24.1 21.0 85 1.8 ESE 20 32 11 17 1017.6 1016.2 0.0
27/09:17pm 23.7 24.2 21.1 85 1.7 ESE 20 26 11 14 1017.4 - 0.0
27/09:03pm 23.7 24.3 21.1 85 1.7 ESE 19 26 10 14 1017.2 - 0.0
27/09:00pm 23.8 24.5 21.2 85 1.7 ESE 19 26 10 14 1017.2 - 0.0
27/08:00pm 23.9 24.5 21.0 84 1.9 ESE 19 26 10 14 1016.7 - 0.0
27/07:00pm 24.0 24.4 20.7 82 2.2 ESE 19 28 10 15 1016.1 1014.6 0.0
27/06:45pm 24.1 25.0 20.8 82 2.2 ESE 17 26 9 14 1015.9 - 0.0
27/06:15pm 24.5 24.9 20.7 79 2.5 ESE 19 26 10 14 1015.7 - 0.0
27/06:00pm 24.7 25.2 20.8 79 2.6 E 19 24 10 13 1015.6 - 0.0
27/05:13pm 25.2 25.5 20.7 76 3.0 E 20 26 11 14 1015.5 - 0.0
27/05:00pm 25.2 25.4 20.5 75 3.1 E 20 26 11 14 1015.4 - 0.0
27/04:00pm 26.0 25.7 20.4 71 3.7 E 22 30 12 16 1015.5 1014.1 0.0
27/03:00pm 25.9 25.3 20.6 72 3.5 E 24 32 13 17 1015.9 - 0.0
27/02:25pm 26.7 26.3 20.2 67 4.3 ESE 22 32 12 17 1016.5 - 0.0
27/02:00pm 26.3 26.5 20.6 71 3.8 E 20 30 11 16 1016.6 - 0.0
27/01:45pm 26.2 26.5 20.8 72 3.6 E 20 30 11 16 1016.8 - 0.0
27/01:00pm 26.2 26.2 20.1 69 4.0 E 20 33 11 18 1017.3 1015.9 0.0
27/12:00pm 26.0 25.6 20.2 70 3.8 E 22 30 12 16 1018.0 - 0.0
27/11:55am 25.6 25.2 20.1 71 3.6 E 22 37 12 20 1018.0 - 0.0
27/11:00am 25.1 25.5 20.7 76 2.9 E 19 32 10 17 1018.3 - 0.0
27/10:36am 25.4 25.0 20.2 73 3.4 E 22 30 12 16 1018.4 - 0.0
27/10:00am 24.6 24.2 20.2 76 2.9 E 22 35 12 19 1018.4 1017.0 0.0
27/09:36am 24.8 24.4 20.1 75 3.1 E 22 32 12 17 1018.2 - 0.0
27/09:15am 24.6 24.8 20.5 78 2.7 E 20 32 11 17 1018.1 - 0.0
27/09:13am 24.5 24.2 20.4 78 2.7 E 22 35 12 19 1018.1 - 0.0

Other Formats:

Comma delimited format used in spreadsheet applications
http://www.bom.gov.au/fwo/IDW60801/IDW60801.96995.axf

JavaScript Object Notation format (JSON) in row-major order
http://www.bom.gov.au/fwo/IDW60801/IDW60801.96995.json